Time,TemperatureF,DewpointF,PressureIn,WindDirection,WindDirectionDegrees,WindSpeedMPH,WindSpeedGustMPH,Humidity,HourlyPrecipIn,Conditions,Clouds,dailyrainin,SoftwareType,DateUTC
2013-03-22 00:02:00,30.3,29.0,29.59,North,351,0.0,0.0,95,0.00,,,0.00,weatherlink.com 1.10,2013-03-22 04:02:00,
2013-03-22 00:17:00,30.4,29.0,29.59,North,350,0.0,0.0,95,0.00,,,0.00,weatherlink.com 1.10,2013-03-22 04:17:00,
2013-03-22 00:32:00,30.5,29.0,29.59,North,350,0.0,0.0,95,0.00,,,0.00,weatherlink.com 1.10,2013-03-22 04:32:00,
2013-03-22 00:47:00,30.5,29.0,29.59,North,349,0.0,0.0,95,0.00,,,0.00,weatherlink.com 1.10,2013-03-22 04:47:00,
2013-03-22 01:02:00,30.5,29.0,29.59,NNW,348,0.0,0.0,95,0.00,,,0.00,weatherlink.com 1.10,2013-03-22 05:02:00,
2013-03-22 01:17:00,30.5,29.0,29.59,NNW,347,0.0,0.0,94,0.00,,,0.00,weatherlink.com 1.10,2013-03-22 05:17:00,
2013-03-22 01:32:00,30.2,29.0,29.59,NNW,347,0.0,0.0,94,0.00,,,0.00,weatherlink.com 1.10,2013-03-22 05:32:00,
2013-03-22 01:47:00,29.9,28.0,29.59,NNW,345,0.0,0.0,93,0.00,,,0.00,weatherlink.com 1.10,2013-03-22 05:47:00,
2013-03-22 02:02:00,29.6,28.0,29.59,NNW,345,0.0,0.0,92,0.00,,,0.00,weatherlink.com 1.10,2013-03-22 06:02:00,
2013-03-22 02:17:00,29.5,27.0,29.59,NNW,344,0.0,0.0,90,0.00,,,0.00,weatherlink.com 1.10,2013-03-22 06:17:00,
2013-03-22 02:32:00,29.5,27.0,29.59,NNW,344,0.0,0.0,90,0.00,,,0.00,weatherlink.com 1.10,2013-03-22 06:32:00,
2013-03-22 02:47:00,29.6,27.0,29.59,NNW,343,0.0,0.0,89,0.00,,,0.00,weatherlink.com 1.10,2013-03-22 06:47:00,
2013-03-22 03:02:00,29.6,27.0,29.59,NNW,342,0.0,0.0,88,0.00,,,0.00,weatherlink.com 1.10,2013-03-22 07:02:00,
2013-03-22 03:17:00,29.4,26.0,29.59,NNW,342,0.0,0.0,88,0.00,,,0.00,weatherlink.com 1.10,2013-03-22 07:17:00,
2013-03-22 03:32:00,29.2,26.0,29.58,NNW,342,0.0,0.0,87,0.00,,,0.00,weatherlink.com 1.10,2013-03-22 07:32:00,
2013-03-22 03:47:00,29.1,25.0,29.58,NNW,342,0.0,0.0,85,0.00,,,0.00,weatherlink.com 1.10,2013-03-22 07:47:00,
2013-03-22 04:02:00,29.0,25.0,29.58,NNW,341,0.0,0.0,84,0.00,,,0.00,weatherlink.com 1.10,2013-03-22 08:02:00,
2013-03-22 04:17:00,29.0,25.0,29.58,NNW,340,0.0,0.0,84,0.00,,,0.00,weatherlink.com 1.10,2013-03-22 08:17:00,
2013-03-22 04:32:00,28.9,25.0,29.58,NNW,340,0.0,0.0,84,0.00,,,0.00,weatherlink.com 1.10,2013-03-22 08:32:00,
2013-03-22 04:47:00,28.9,25.0,29.58,NNW,340,0.0,0.0,84,0.00,,,0.00,weatherlink.com 1.10,2013-03-22 08:47:00,
2013-03-22 05:02:00,28.8,25.0,29.59,NNW,339,0.0,0.0,84,0.00,,,0.00,weatherlink.com 1.10,2013-03-22 09:02:00,
2013-03-22 05:17:00,28.7,25.0,29.59,NNW,339,0.0,0.0,84,0.00,,,0.00,weatherlink.com 1.10,2013-03-22 09:17:00,
2013-03-22 05:32:00,28.4,24.0,29.59,NNW,338,0.0,0.0,83,0.00,,,0.00,weatherlink.com 1.10,2013-03-22 09:32:00,
2013-03-22 05:47:00,28.0,24.0,29.59,NNW,338,0.0,0.0,84,0.00,,,0.00,weatherlink.com 1.10,2013-03-22 09:47:00,
2013-03-22 06:02:00,27.6,24.0,29.60,NNW,338,0.0,0.0,85,0.00,,,0.00,weatherlink.com 1.10,2013-03-22 10:02:00,
2013-03-22 06:17:00,27.5,24.0,29.60,NNW,338,0.0,0.0,85,0.00,,,0.00,weatherlink.com 1.10,2013-03-22 10:17:00,
2013-03-22 06:32:00,27.4,24.0,29.61,NNW,337,0.0,0.0,85,0.00,,,0.00,weatherlink.com 1.10,2013-03-22 10:32:00,
2013-03-22 06:47:00,27.4,23.0,29.61,NNW,337,0.0,0.0,84,0.00,,,0.00,weatherlink.com 1.10,2013-03-22 10:47:00,
2013-03-22 07:02:00,27.2,23.0,29.62,NNW,336,0.0,0.0,83,0.00,,,0.00,weatherlink.com 1.10,2013-03-22 11:02:00,
2013-03-22 07:17:00,26.7,22.0,29.62,NNW,336,0.0,0.0,83,0.00,,,0.00,weatherlink.com 1.10,2013-03-22 11:17:00,
2013-03-22 07:32:00,26.4,22.0,29.63,NNW,335,0.0,0.0,83,0.00,,,0.00,weatherlink.com 1.10,2013-03-22 11:32:00,
2013-03-22 07:47:00,26.5,22.0,29.64,NNW,335,0.0,0.0,82,0.00,,,0.00,weatherlink.com 1.10,2013-03-22 11:47:00,
2013-03-22 08:02:00,27.3,22.0,29.64,NNW,329,0.0,1.0,81,0.00,,,0.00,weatherlink.com 1.10,2013-03-22 12:02:00,
2013-03-22 08:17:00,28.2,22.0,29.64,NW,319,0.0,1.0,79,0.00,,,0.00,weatherlink.com 1.10,2013-03-22 12:17:00,
2013-03-22 08:32:00,29.0,23.0,29.65,North,350,0.0,3.0,78,0.00,,,0.00,weatherlink.com 1.10,2013-03-22 12:32:00,
2013-03-22 08:47:00,29.8,23.0,29.65,WSW,251,3.0,4.0,76,0.00,,,0.00,weatherlink.com 1.10,2013-03-22 12:47:00,
2013-03-22 09:02:00,30.2,23.0,29.66,NW,325,0.0,8.0,73,0.00,,,0.00,weatherlink.com 1.10,2013-03-22 13:02:00,
2013-03-22 09:18:00,31.0,24.0,29.66,WNW,286,0.0,5.0,74,0.00,,,0.00,weatherlink.com 1.10,2013-03-22 13:18:00,
2013-03-22 09:33:00,31.7,24.0,29.66,West,280,0.0,3.0,72,0.00,,,0.00,weatherlink.com 1.10,2013-03-22 13:33:00,
2013-03-22 09:48:00,32.1,23.0,29.66,NW,320,0.0,7.0,70,0.00,,,0.00,weatherlink.com 1.10,2013-03-22 13:48:00,
2013-03-22 10:03:00,32.9,23.0,29.66,WNW,286,0.0,6.0,68,0.03,,,0.03,weatherlink.com 1.10,2013-03-22 14:03:00,
2013-03-22 10:18:00,34.4,25.0,29.66,West,273,1.0,5.0,69,0.07,,,0.07,weatherlink.com 1.10,2013-03-22 14:18:00,
2013-03-22 10:33:00,35.0,24.0,29.66,NNW,328,0.0,3.0,65,0.10,,,0.10,weatherlink.com 1.10,2013-03-22 14:33:00,
2013-03-22 10:48:00,35.5,25.0,29.66,NW,325,3.0,5.0,65,0.13,,,0.13,weatherlink.com 1.10,2013-03-22 14:48:00,
2013-03-22 11:03:00,36.1,24.0,29.66,West,260,1.0,6.0,61,0.12,,,0.16,weatherlink.com 1.10,2013-03-22 15:03:00,
2013-03-22 11:18:00,36.5,24.0,29.66,SSW,212,4.0,12.0,61,0.11,,,0.18,weatherlink.com 1.10,2013-03-22 15:18:00,
2013-03-22 11:33:00,37.4,24.0,29.66,NW,312,0.0,5.0,58,0.11,,,0.21,weatherlink.com 1.10,2013-03-22 15:33:00,
2013-03-22 11:48:00,38.6,22.0,29.66,SW,227,4.0,8.0,51,0.10,,,0.23,weatherlink.com 1.10,2013-03-22 15:48:00,
2013-03-22 12:03:00,38.2,23.0,29.66,West,273,6.0,6.0,54,0.08,,,0.24,weatherlink.com 1.10,2013-03-22 16:03:00,
2013-03-22 12:33:00,39.1,21.0,29.66,NW,321,5.0,7.0,49,0.05,,,0.26,weatherlink.com 1.10,2013-03-22 16:33:00,
2013-03-22 12:48:00,39.1,21.0,29.66,West,260,4.0,9.0,49,0.04,,,0.27,weatherlink.com 1.10,2013-03-22 16:48:00,
2013-03-22 13:03:00,39.3,20.0,29.65,West,268,3.0,8.0,47,0.02,,,0.27,weatherlink.com 1.10,2013-03-22 17:03:00,
2013-03-22 13:18:00,39.6,21.0,29.65,WNW,286,2.0,8.0,48,0.02,,,0.28,weatherlink.com 1.10,2013-03-22 17:18:00,
2013-03-22 13:33:00,40.2,20.0,29.65,West,259,7.0,8.0,45,0.02,,,0.28,weatherlink.com 1.10,2013-03-22 17:33:00,
2013-03-22 13:48:00,40.6,22.0,29.64,West,261,5.0,9.0,47,0.01,,,0.28,weatherlink.com 1.10,2013-03-22 17:48:00,
2013-03-22 14:03:00,40.1,21.0,29.64,WNW,290,11.0,14.0,47,0.01,,,0.28,weatherlink.com 1.10,2013-03-22 18:03:00,
2013-03-22 14:18:00,39.5,20.0,29.64,WSW,245,6.0,13.0,46,0.00,,,0.28,weatherlink.com 1.10,2013-03-22 18:18:00,
2013-03-22 14:33:00,40.1,21.0,29.64,WSW,257,2.0,12.0,46,0.00,,,0.28,weatherlink.com 1.10,2013-03-22 18:33:00,
2013-03-22 14:48:00,40.3,21.0,29.64,NW,314,0.0,9.0,47,0.00,,,0.28,weatherlink.com 1.10,2013-03-22 18:48:00,
2013-03-22 15:03:00,40.2,21.0,29.64,West,259,4.0,12.0,46,0.00,,,0.28,weatherlink.com 1.10,2013-03-22 19:03:00,
2013-03-22 15:18:00,39.4,21.0,29.64,West,271,2.0,9.0,48,0.00,,,0.28,weatherlink.com 1.10,2013-03-22 19:18:00,
2013-03-22 15:33:00,38.8,20.0,29.64,WSW,248,2.0,15.0,48,0.00,,,0.28,weatherlink.com 1.10,2013-03-22 19:33:00,
2013-03-22 15:48:00,39.7,20.0,29.64,WSW,258,5.0,14.0,46,0.00,,,0.28,weatherlink.com 1.10,2013-03-22 19:48:00,
2013-03-22 16:03:00,40.1,20.0,29.64,WSW,252,0.0,10.0,45,0.00,,,0.28,weatherlink.com 1.10,2013-03-22 20:03:00,
2013-03-22 16:18:00,40.8,20.0,29.64,NW,314,0.0,12.0,43,0.00,,,0.28,weatherlink.com 1.10,2013-03-22 20:18:00,
2013-03-22 16:33:00,39.9,20.0,29.65,West,262,2.0,8.0,46,0.00,,,0.28,weatherlink.com 1.10,2013-03-22 20:33:00,
2013-03-22 16:48:00,40.2,20.0,29.64,WSW,257,9.0,15.0,44,0.00,,,0.28,weatherlink.com 1.10,2013-03-22 20:48:00,
2013-03-22 17:03:00,39.4,20.0,29.66,NNW,343,2.0,11.0,46,0.00,,,0.28,weatherlink.com 1.10,2013-03-22 21:03:00,
2013-03-22 17:18:00,39.0,21.0,29.65,West,267,4.0,15.0,49,0.00,,,0.28,weatherlink.com 1.10,2013-03-22 21:18:00,
2013-03-22 17:33:00,39.2,20.0,29.66,West,279,8.0,15.0,47,0.00,,,0.28,weatherlink.com 1.10,2013-03-22 21:33:00,
2013-03-22 17:48:00,39.0,22.0,29.66,West,268,0.0,12.0,50,0.00,,,0.28,weatherlink.com 1.10,2013-03-22 21:48:00,
2013-03-22 18:05:00,39.0,21.0,29.66,WNW,290,3.0,8.0,49,0.00,,,0.28,weatherlink.com 1.10,2013-03-22 22:05:00,
2013-03-22 18:18:00,38.5,21.0,29.67,WSW,253,7.0,21.0,50,0.00,,,0.28,weatherlink.com 1.10,2013-03-22 22:18:00,
2013-03-22 18:33:00,37.8,23.0,29.68,NNW,336,2.0,5.0,55,0.00,,,0.28,weatherlink.com 1.10,2013-03-22 22:33:00,
2013-03-22 18:48:00,37.9,22.0,29.68,WSW,251,0.0,9.0,54,0.00,,,0.28,weatherlink.com 1.10,2013-03-22 22:48:00,
2013-03-22 19:03:00,38.0,22.0,29.69,NW,321,3.0,8.0,52,0.00,,,0.28,weatherlink.com 1.10,2013-03-22 23:03:00,
2013-03-22 19:18:00,37.5,22.0,29.70,WSW,247,0.0,9.0,54,0.00,,,0.28,weatherlink.com 1.10,2013-03-22 23:18:00,
2013-03-22 19:34:00,37.3,22.0,29.70,WSW,255,0.0,9.0,55,0.00,,,0.28,weatherlink.com 1.10,2013-03-22 23:34:00,
2013-03-22 19:49:00,37.1,23.0,29.71,West,267,0.0,5.0,56,0.00,,,0.28,weatherlink.com 1.10,2013-03-22 23:49:00,
2013-03-22 20:04:00,37.1,23.0,29.71,WNW,296,2.0,4.0,56,0.00,,,0.28,weatherlink.com 1.10,2013-03-23 00:04:00,
2013-03-22 20:19:00,37.0,23.0,29.71,West,278,2.0,4.0,57,0.00,,,0.28,weatherlink.com 1.10,2013-03-23 00:19:00,
2013-03-22 20:34:00,37.1,23.0,29.72,WSW,249,3.0,5.0,56,0.00,,,0.28,weatherlink.com 1.10,2013-03-23 00:34:00,
2013-03-22 20:49:00,37.2,23.0,29.72,WSW,257,0.0,5.0,56,0.00,,,0.28,weatherlink.com 1.10,2013-03-23 00:49:00,
2013-03-22 21:04:00,37.2,22.0,29.73,NNW,328,4.0,9.0,55,0.00,,,0.28,weatherlink.com 1.10,2013-03-23 01:04:00,
2013-03-22 21:19:00,37.1,23.0,29.73,WSW,249,1.0,10.0,56,0.00,,,0.28,weatherlink.com 1.10,2013-03-23 01:19:00,
2013-03-22 21:34:00,36.8,23.0,29.73,WNW,290,0.0,8.0,57,0.00,,,0.28,weatherlink.com 1.10,2013-03-23 01:34:00,
2013-03-22 21:49:00,36.8,23.0,29.73,West,275,0.0,15.0,57,0.00,,,0.28,weatherlink.com 1.10,2013-03-23 01:49:00,
2013-03-22 22:04:00,36.8,23.0,29.73,SW,236,1.0,9.0,58,0.00,,,0.28,weatherlink.com 1.10,2013-03-23 02:04:00,
2013-03-22 22:19:00,36.4,23.0,29.73,West,264,1.0,15.0,58,0.00,,,0.28,weatherlink.com 1.10,2013-03-23 02:19:00,
2013-03-22 22:34:00,36.1,24.0,29.73,West,272,3.0,11.0,61,0.00,,,0.28,weatherlink.com 1.10,2013-03-23 02:34:00,
2013-03-22 22:49:00,35.7,23.0,29.73,SW,236,16.0,16.0,61,0.00,,,0.28,weatherlink.com 1.10,2013-03-23 02:49:00,
2013-03-22 23:04:00,35.3,23.0,29.73,WSW,258,3.0,13.0,60,0.00,,,0.28,weatherlink.com 1.10,2013-03-23 03:04:00,
2013-03-22 23:34:00,34.1,23.0,29.74,WNW,284,3.0,13.0,63,0.00,,,0.28,weatherlink.com 1.10,2013-03-23 03:34:00,
2013-03-22 23:49:00,33.8,23.0,29.74,West,263,1.0,6.0,64,0.00,,,0.28,weatherlink.com 1.10,2013-03-23 03:49:00,